This is the latest recevied weather packets stored in our database for station/object DL6MAA-11. If no packets are shown the sender has not sent any weather packets the latest 1 day(s).
| Time | Temp. | Humidity | Pressure | Rain* | Wind** | Luminosity | Snow |
|---|---|---|---|---|---|---|---|
| 1778074011 | 15.56° C | 66% | 1002.7 hPa | 0.25 mm | - | 14 W/m² | - |
| 1778073714 | 15.56° C | 67% | 1002.7 hPa | 0.25 mm | - | 14 W/m² | - |
| 1778072508 | 15.56° C | 61% | 1002.6 hPa | 0 mm | - | 25 W/m² | - |
| 1778072208 | 15.56° C | 62% | 1002.3 hPa | 0 mm | - | 33 W/m² | - |
| 1778071915 | 15.56° C | 62% | 1002.3 hPa | 0 mm | - | 44 W/m² | - |
| 1778071617 | 16.11° C | 61% | 1002.3 hPa | 0 mm | - | 62 W/m² | - |
| 1778071316 | 16.11° C | 60% | 1002.3 hPa | 0 mm | - | 81 W/m² | - |
| 1778070410 | 16.67° C | 59% | 1002.3 hPa | 0 mm | - | 125 W/m² | - |
| 1778069515 | 16.67° C | 58% | 1002.2 hPa | 0 mm | - | 163 W/m² | - |
| 1778068904 | 16.67° C | 57% | 1002.2 hPa | 0 mm | - | 151 W/m² | - |
| 1778068612 | 16.67° C | 58% | 1002.2 hPa | 0 mm | - | 171 W/m² | - |
| 1778068314 | 17.22° C | 57% | 1002.2 hPa | 0 mm | - | 188 W/m² | - |
| 1778068013 | 16.67° C | 58% | 1002.2 hPa | 0 mm | - | 207 W/m² | - |
| 1778067126 | 16.67° C | 58% | 1002.4 hPa | 0 mm | - | 176 W/m² | - |
| 1778066520 | 16.67° C | 58% | 1003.4 hPa | 0 mm | - | 195 W/m² | - |
| 1778065924 | 17.78° C | 55% | 1003.1 hPa | 0 mm | - | 207 W/m² | - |
| 1778065314 | 17.22° C | 56% | 1003.1 hPa | 0 mm | - | 329 W/m² | - |
| 1778063520 | 17.78° C | 56% | 1003.7 hPa | 0 mm | - | 434 W/m² | - |
| 1778063206 | 17.78° C | 56% | 1003.9 hPa | 0 mm | - | 439 W/m² | - |
| 1778062912 | 17.78° C | 57% | 1003.9 hPa | 0 mm | - | 436 W/m² | - |
| 1778062616 | 17.22° C | 56% | 1003.9 hPa | 0 mm | - | 650 W/m² | - |
| 1778061409 | 16.11° C | 61% | 1004.1 hPa | 0 mm | - | 325 W/m² | - |
| 1778060507 | 16.11° C | 61% | 1004.1 hPa | 0 mm | - | 281 W/m² | - |
| 1778060215 | 15.56° C | 62% | 1004.1 hPa | 0 mm | - | 246 W/m² | - |
| 1778059311 | 15.56° C | 64% | 1003.4 hPa | 0 mm | - | 200 W/m² | - |
* Rain since midnight (hover to see other rain measurements)
** Current wind speed in m/s (hover to see current wind gust speed)